sensor_id;sensor_type;location;lat;lon;timestamp;pressure;altitude;pressure_sealevel;temperature
82297;BMP280;71899;51.992;8.648;2023-12-28T00:00:18;99563.25;;;9.06
82297;BMP280;71899;51.992;8.648;2023-12-28T00:02:43;99574.94;;;9.13
82297;BMP280;71899;51.992;8.648;2023-12-28T00:05:08;99585.38;;;9.01
82297;BMP280;71899;51.992;8.648;2023-12-28T00:07:34;99586.56;;;8.82
82297;BMP280;71899;51.992;8.648;2023-12-28T00:10:00;99576.56;;;8.76
82297;BMP280;71899;51.992;8.648;2023-12-28T00:12:25;99590.28;;;8.66
82297;BMP280;71899;51.992;8.648;2023-12-28T00:14:50;99573.31;;;8.73
82297;BMP280;71899;51.992;8.648;2023-12-28T00:17:16;99581.13;;;8.73
82297;BMP280;71899;51.992;8.648;2023-12-28T00:19:41;99577.91;;;8.69
82297;BMP280;71899;51.992;8.648;2023-12-28T00:22:07;99583.47;;;8.77
82297;BMP280;71899;51.992;8.648;2023-12-28T00:24:32;99572.69;;;8.69
82297;BMP280;71899;51.992;8.648;2023-12-28T00:26:57;99581.53;;;8.67
82297;BMP280;71899;51.992;8.648;2023-12-28T00:29:23;99589.94;;;8.58
82297;BMP280;71899;51.992;8.648;2023-12-28T00:31:48;99585.44;;;8.60
82297;BMP280;71899;51.992;8.648;2023-12-28T00:34:13;99580.59;;;8.68
82297;BMP280;71899;51.992;8.648;2023-12-28T00:36:39;99582.69;;;8.75
82297;BMP280;71899;51.992;8.648;2023-12-28T00:39:04;99589.88;;;8.72
82297;BMP280;71899;51.992;8.648;2023-12-28T00:41:29;99596.97;;;8.70
82297;BMP280;71899;51.992;8.648;2023-12-28T00:43:55;99600.22;;;8.73
82297;BMP280;71899;51.992;8.648;2023-12-28T00:46:20;99609.88;;;8.71
82297;BMP280;71899;51.992;8.648;2023-12-28T00:48:45;99609.38;;;8.66
82297;BMP280;71899;51.992;8.648;2023-12-28T00:51:11;99601.88;;;8.74
82297;BMP280;71899;51.992;8.648;2023-12-28T00:53:36;99628.28;;;8.82
82297;BMP280;71899;51.992;8.648;2023-12-28T00:56:02;99617.97;;;8.81
82297;BMP280;71899;51.992;8.648;2023-12-28T00:58:27;99612.97;;;8.90
82297;BMP280;71899;51.992;8.648;2023-12-28T01:00:52;99614.91;;;8.74
82297;BMP280;71899;51.992;8.648;2023-12-28T01:03:20;99606.66;;;8.68
82297;BMP280;71899;51.992;8.648;2023-12-28T01:05:46;99617.00;;;8.82
82297;BMP280;71899;51.992;8.648;2023-12-28T01:08:15;99610.84;;;8.70
82297;BMP280;71899;51.992;8.648;2023-12-28T01:10:40;99590.72;;;8.72
82297;BMP280;71899;51.992;8.648;2023-12-28T01:13:06;99604.47;;;9.01
82297;BMP280;71899;51.992;8.648;2023-12-28T01:15:31;99621.31;;;8.95
82297;BMP280;71899;51.992;8.648;2023-12-28T01:17:57;99604.25;;;9.04
82297;BMP280;71899;51.992;8.648;2023-12-28T01:20:23;99608.19;;;8.97
82297;BMP280;71899;51.992;8.648;2023-12-28T01:22:48;99603.69;;;8.86
82297;BMP280;71899;51.992;8.648;2023-12-28T01:25:15;99593.47;;;8.83
82297;BMP280;71899;51.992;8.648;2023-12-28T01:27:41;99597.56;;;8.87
82297;BMP280;71899;51.992;8.648;2023-12-28T01:30:06;99611.41;;;8.88
82297;BMP280;71899;51.992;8.648;2023-12-28T01:32:32;99618.19;;;8.90
82297;BMP280;71899;51.992;8.648;2023-12-28T01:34:57;99622.06;;;8.98
82297;BMP280;71899;51.992;8.648;2023-12-28T01:37:23;99617.44;;;8.88
82297;BMP280;71899;51.992;8.648;2023-12-28T01:39:48;99629.78;;;8.99
82297;BMP280;71899;51.992;8.648;2023-12-28T01:42:13;99642.94;;;8.98
82297;BMP280;71899;51.992;8.648;2023-12-28T01:44:39;99636.03;;;8.96
82297;BMP280;71899;51.992;8.648;2023-12-28T01:47:05;99620.63;;;9.06
82297;BMP280;71899;51.992;8.648;2023-12-28T01:49:31;99658.06;;;9.05
82297;BMP280;71899;51.992;8.648;2023-12-28T01:51:56;99632.53;;;9.10
82297;BMP280;71899;51.992;8.648;2023-12-28T01:54:22;99619.81;;;9.06
82297;BMP280;71899;51.992;8.648;2023-12-28T01:56:48;99620.53;;;9.08
82297;BMP280;71899;51.992;8.648;2023-12-28T01:59:14;99627.94;;;9.01
82297;BMP280;71899;51.992;8.648;2023-12-28T02:01:40;99642.19;;;8.95
82297;BMP280;71899;51.992;8.648;2023-12-28T02:04:08;99624.13;;;8.92
82297;BMP280;71899;51.992;8.648;2023-12-28T02:06:37;99639.88;;;8.91
82297;BMP280;71899;51.992;8.648;2023-12-28T02:09:03;99643.50;;;8.88
82297;BMP280;71899;51.992;8.648;2023-12-28T02:11:28;99650.50;;;8.88
82297;BMP280;71899;51.992;8.648;2023-12-28T02:13:54;99618.09;;;8.92
82297;BMP280;71899;51.992;8.648;2023-12-28T02:16:42;99632.94;;;9.04
82297;BMP280;71899;51.992;8.648;2023-12-28T02:22:14;99640.81;;;8.90
82297;BMP280;71899;51.992;8.648;2023-12-28T02:25:13;99633.44;;;8.96
82297;BMP280;71899;51.992;8.648;2023-12-28T02:27:46;99640.91;;;8.88
82297;BMP280;71899;51.992;8.648;2023-12-28T02:30:13;99647.06;;;8.87
82297;BMP280;71899;51.992;8.648;2023-12-28T02:35:23;99640.09;;;8.88
82297;BMP280;71899;51.992;8.648;2023-12-28T02:37:55;99644.47;;;8.87
82297;BMP280;71899;51.992;8.648;2023-12-28T02:40:22;99642.00;;;8.99
82297;BMP280;71899;51.992;8.648;2023-12-28T02:42:57;99643.78;;;8.98
82297;BMP280;71899;51.992;8.648;2023-12-28T02:45:36;99631.88;;;8.94
82297;BMP280;71899;51.992;8.648;2023-12-28T02:48:04;99641.78;;;9.02
82297;BMP280;71899;51.992;8.648;2023-12-28T02:51:03;99643.38;;;9.04
82297;BMP280;71899;51.992;8.648;2023-12-28T02:53:35;99645.56;;;9.10
82297;BMP280;71899;51.992;8.648;2023-12-28T02:56:11;99635.53;;;9.04
82297;BMP280;71899;51.992;8.648;2023-12-28T02:58:36;99654.41;;;9.08
82297;BMP280;71899;51.992;8.648;2023-12-28T03:01:03;99647.50;;;8.94
82297;BMP280;71899;51.992;8.648;2023-12-28T03:03:51;99652.50;;;8.97
82297;BMP280;71899;51.992;8.648;2023-12-28T03:06:25;99653.88;;;9.03
82297;BMP280;71899;51.992;8.648;2023-12-28T03:08:54;99647.59;;;8.92
82297;BMP280;71899;51.992;8.648;2023-12-28T03:11:19;99628.97;;;8.99
82297;BMP280;71899;51.992;8.648;2023-12-28T03:13:46;99647.28;;;8.84
82297;BMP280;71899;51.992;8.648;2023-12-28T03:16:13;99655.13;;;8.97
82297;BMP280;71899;51.992;8.648;2023-12-28T03:18:39;99658.97;;;8.91
82297;BMP280;71899;51.992;8.648;2023-12-28T03:21:04;99652.31;;;9.00
82297;BMP280;71899;51.992;8.648;2023-12-28T03:23:30;99660.03;;;9.02
82297;BMP280;71899;51.992;8.648;2023-12-28T03:25:57;99657.00;;;8.95
82297;BMP280;71899;51.992;8.648;2023-12-28T03:28:23;99642.63;;;9.02
82297;BMP280;71899;51.992;8.648;2023-12-28T03:30:48;99659.94;;;9.03
82297;BMP280;71899;51.992;8.648;2023-12-28T03:33:14;99646.69;;;9.06
82297;BMP280;71899;51.992;8.648;2023-12-28T03:35:42;99659.22;;;9.14
82297;BMP280;71899;51.992;8.648;2023-12-28T03:38:07;99646.09;;;9.15
82297;BMP280;71899;51.992;8.648;2023-12-28T03:40:32;99644.41;;;9.02
82297;BMP280;71899;51.992;8.648;2023-12-28T03:42:58;99643.00;;;9.23
82297;BMP280;71899;51.992;8.648;2023-12-28T03:45:23;99641.09;;;9.12
82297;BMP280;71899;51.992;8.648;2023-12-28T03:47:48;99621.59;;;9.18
82297;BMP280;71899;51.992;8.648;2023-12-28T03:50:16;99632.94;;;9.17
82297;BMP280;71899;51.992;8.648;2023-12-28T03:52:41;99624.19;;;9.18
82297;BMP280;71899;51.992;8.648;2023-12-28T03:55:07;99634.34;;;9.22
82297;BMP280;71899;51.992;8.648;2023-12-28T03:57:34;99632.31;;;9.13
82297;BMP280;71899;51.992;8.648;2023-12-28T03:59:59;99630.47;;;9.15
82297;BMP280;71899;51.992;8.648;2023-12-28T04:02:25;99629.31;;;9.19
82297;BMP280;71899;51.992;8.648;2023-12-28T04:04:52;99622.13;;;9.23
82297;BMP280;71899;51.992;8.648;2023-12-28T04:07:28;99641.75;;;9.28
82297;BMP280;71899;51.992;8.648;2023-12-28T04:09:55;99613.69;;;9.19
82297;BMP280;71899;51.992;8.648;2023-12-28T04:12:21;99626.09;;;9.16
82297;BMP280;71899;51.992;8.648;2023-12-28T04:14:46;99639.00;;;9.17
82297;BMP280;71899;51.992;8.648;2023-12-28T04:17:12;99621.50;;;9.19
82297;BMP280;71899;51.992;8.648;2023-12-28T04:19:37;99616.88;;;9.10
82297;BMP280;71899;51.992;8.648;2023-12-28T04:22:02;99616.72;;;9.26
82297;BMP280;71899;51.992;8.648;2023-12-28T04:24:28;99611.38;;;9.15
82297;BMP280;71899;51.992;8.648;2023-12-28T04:26:54;99625.53;;;9.11
82297;BMP280;71899;51.992;8.648;2023-12-28T04:29:20;99628.78;;;9.14
82297;BMP280;71899;51.992;8.648;2023-12-28T04:31:46;99616.38;;;9.18
82297;BMP280;71899;51.992;8.648;2023-12-28T04:34:12;99607.31;;;9.23
82297;BMP280;71899;51.992;8.648;2023-12-28T04:36:41;99617.53;;;9.26
82297;BMP280;71899;51.992;8.648;2023-12-28T04:39:08;99599.38;;;9.12
82297;BMP280;71899;51.992;8.648;2023-12-28T04:41:33;99601.44;;;9.07
82297;BMP280;71899;51.992;8.648;2023-12-28T04:43:58;99620.66;;;9.19
82297;BMP280;71899;51.992;8.648;2023-12-28T04:46:24;99615.03;;;9.25
82297;BMP280;71899;51.992;8.648;2023-12-28T04:48:49;99622.84;;;9.25
82297;BMP280;71899;51.992;8.648;2023-12-28T04:51:15;99600.22;;;9.25
82297;BMP280;71899;51.992;8.648;2023-12-28T04:53:40;99605.44;;;9.25
82297;BMP280;71899;51.992;8.648;2023-12-28T04:56:12;99602.94;;;9.24
82297;BMP280;71899;51.992;8.648;2023-12-28T04:58:37;99623.69;;;9.25
82297;BMP280;71899;51.992;8.648;2023-12-28T05:01:03;99621.00;;;9.27
82297;BMP280;71899;51.992;8.648;2023-12-28T05:03:28;99622.94;;;9.11
82297;BMP280;71899;51.992;8.648;2023-12-28T05:05:53;99627.50;;;9.07
82297;BMP280;71899;51.992;8.648;2023-12-28T05:08:19;99624.69;;;9.10
82297;BMP280;71899;51.992;8.648;2023-12-28T05:10:44;99637.44;;;9.15
82297;BMP280;71899;51.992;8.648;2023-12-28T05:13:10;99638.41;;;9.26
82297;BMP280;71899;51.992;8.648;2023-12-28T05:15:35;99641.72;;;9.16
82297;BMP280;71899;51.992;8.648;2023-12-28T05:18:01;99656.84;;;9.11
82297;BMP280;71899;51.992;8.648;2023-12-28T05:20:28;99654.34;;;9.22
82297;BMP280;71899;51.992;8.648;2023-12-28T05:22:53;99644.47;;;9.27
82297;BMP280;71899;51.992;8.648;2023-12-28T05:25:18;99651.03;;;9.32
82297;BMP280;71899;51.992;8.648;2023-12-28T05:27:44;99650.63;;;9.38
82297;BMP280;71899;51.992;8.648;2023-12-28T05:30:09;99662.22;;;9.47
82297;BMP280;71899;51.992;8.648;2023-12-28T05:32:36;99637.50;;;9.53
82297;BMP280;71899;51.992;8.648;2023-12-28T05:35:01;99667.56;;;9.58
82297;BMP280;71899;51.992;8.648;2023-12-28T05:37:26;99670.91;;;9.60
82297;BMP280;71899;51.992;8.648;2023-12-28T05:39:52;99667.56;;;9.58
82297;BMP280;71899;51.992;8.648;2023-12-28T05:42:17;99662.69;;;9.66
82297;BMP280;71899;51.992;8.648;2023-12-28T05:44:42;99660.78;;;9.56
82297;BMP280;71899;51.992;8.648;2023-12-28T05:47:08;99666.53;;;9.48
82297;BMP280;71899;51.992;8.648;2023-12-28T05:49:33;99669.63;;;9.53
82297;BMP280;71899;51.992;8.648;2023-12-28T05:51:59;99665.81;;;9.59
82297;BMP280;71899;51.992;8.648;2023-12-28T05:54:24;99662.56;;;9.68
82297;BMP280;71899;51.992;8.648;2023-12-28T05:56:51;99668.28;;;9.60
82297;BMP280;71899;51.992;8.648;2023-12-28T05:59:16;99670.81;;;9.62
82297;BMP280;71899;51.992;8.648;2023-12-28T06:01:43;99665.38;;;9.65
82297;BMP280;71899;51.992;8.648;2023-12-28T06:04:08;99663.78;;;9.50
82297;BMP280;71899;51.992;8.648;2023-12-28T06:06:34;99676.41;;;9.43
82297;BMP280;71899;51.992;8.648;2023-12-28T06:08:59;99661.38;;;9.34
82297;BMP280;71899;51.992;8.648;2023-12-28T06:11:25;99684.94;;;9.32
82297;BMP280;71899;51.992;8.648;2023-12-28T06:13:50;99679.59;;;9.21
82297;BMP280;71899;51.992;8.648;2023-12-28T06:16:15;99677.19;;;9.18
82297;BMP280;71899;51.992;8.648;2023-12-28T06:18:41;99687.41;;;9.21
82297;BMP280;71899;51.992;8.648;2023-12-28T06:21:08;99691.63;;;9.24
82297;BMP280;71899;51.992;8.648;2023-12-28T06:23:33;99706.56;;;9.34
82297;BMP280;71899;51.992;8.648;2023-12-28T06:26:04;99716.66;;;9.26
82297;BMP280;71899;51.992;8.648;2023-12-28T06:28:31;99699.75;;;9.32
82297;BMP280;71899;51.992;8.648;2023-12-28T06:30:57;99708.47;;;9.45
82297;BMP280;71899;51.992;8.648;2023-12-28T06:33:29;99698.56;;;9.50
82297;BMP280;71899;51.992;8.648;2023-12-28T06:35:54;99688.75;;;9.54
82297;BMP280;71899;51.992;8.648;2023-12-28T06:38:20;99702.44;;;9.57
82297;BMP280;71899;51.992;8.648;2023-12-28T06:40:45;99703.19;;;9.59
82297;BMP280;71899;51.992;8.648;2023-12-28T06:43:11;99703.13;;;9.46
82297;BMP280;71899;51.992;8.648;2023-12-28T06:45:40;99707.47;;;9.73
82297;BMP280;71899;51.992;8.648;2023-12-28T06:48:05;99706.31;;;9.77
82297;BMP280;71899;51.992;8.648;2023-12-28T06:50:31;99730.00;;;9.61
82297;BMP280;71899;51.992;8.648;2023-12-28T06:52:56;99704.47;;;9.39
82297;BMP280;71899;51.992;8.648;2023-12-28T06:55:22;99713.16;;;9.40
82297;BMP280;71899;51.992;8.648;2023-12-28T06:57:49;99716.22;;;9.59
82297;BMP280;71899;51.992;8.648;2023-12-28T07:00:14;99698.13;;;9.17
82297;BMP280;71899;51.992;8.648;2023-12-28T07:02:40;99717.38;;;9.28
82297;BMP280;71899;51.992;8.648;2023-12-28T07:05:06;99704.34;;;9.28
82297;BMP280;71899;51.992;8.648;2023-12-28T07:07:31;99698.13;;;9.43
82297;BMP280;71899;51.992;8.648;2023-12-28T07:09:57;99692.28;;;9.40
82297;BMP280;71899;51.992;8.648;2023-12-28T07:12:23;99711.25;;;9.42
82297;BMP280;71899;51.992;8.648;2023-12-28T07:14:49;99694.38;;;9.48
82297;BMP280;71899;51.992;8.648;2023-12-28T07:17:14;99698.97;;;9.44
82297;BMP280;71899;51.992;8.648;2023-12-28T07:19:42;99707.75;;;9.68
82297;BMP280;71899;51.992;8.648;2023-12-28T07:22:08;99702.63;;;9.67
82297;BMP280;71899;51.992;8.648;2023-12-28T07:24:34;99697.34;;;9.81
82297;BMP280;71899;51.992;8.648;2023-12-28T07:26:59;99711.72;;;9.61
82297;BMP280;71899;51.992;8.648;2023-12-28T07:29:25;99709.53;;;9.68
82297;BMP280;71899;51.992;8.648;2023-12-28T07:31:50;99697.91;;;9.46
82297;BMP280;71899;51.992;8.648;2023-12-28T07:34:16;99700.22;;;9.51
82297;BMP280;71899;51.992;8.648;2023-12-28T07:36:44;99683.72;;;9.38
82297;BMP280;71899;51.992;8.648;2023-12-28T07:39:10;99701.94;;;9.25
82297;BMP280;71899;51.992;8.648;2023-12-28T07:41:37;99702.06;;;9.24
82297;BMP280;71899;51.992;8.648;2023-12-28T07:44:03;99700.38;;;9.23
82297;BMP280;71899;51.992;8.648;2023-12-28T07:46:28;99710.81;;;9.23
82297;BMP280;71899;51.992;8.648;2023-12-28T07:48:53;99699.25;;;9.27
82297;BMP280;71899;51.992;8.648;2023-12-28T07:51:19;99725.31;;;9.27
82297;BMP280;71899;51.992;8.648;2023-12-28T07:53:46;99731.66;;;9.23
82297;BMP280;71899;51.992;8.648;2023-12-28T07:56:14;99726.59;;;9.34
82297;BMP280;71899;51.992;8.648;2023-12-28T07:58:41;99738.81;;;9.46
82297;BMP280;71899;51.992;8.648;2023-12-28T08:01:10;99749.66;;;9.40
82297;BMP280;71899;51.992;8.648;2023-12-28T08:03:36;99752.94;;;9.56
82297;BMP280;71899;51.992;8.648;2023-12-28T08:06:01;99754.75;;;9.68
82297;BMP280;71899;51.992;8.648;2023-12-28T08:08:27;99752.94;;;9.56
82297;BMP280;71899;51.992;8.648;2023-12-28T08:10:52;99764.22;;;9.57
82297;BMP280;71899;51.992;8.648;2023-12-28T08:13:18;99768.66;;;9.81
82297;BMP280;71899;51.992;8.648;2023-12-28T08:15:43;99753.38;;;9.63
82297;BMP280;71899;51.992;8.648;2023-12-28T08:18:10;99744.94;;;9.59
82297;BMP280;71899;51.992;8.648;2023-12-28T08:20:35;99763.50;;;9.55
82297;BMP280;71899;51.992;8.648;2023-12-28T08:23:00;99756.31;;;9.31
82297;BMP280;71899;51.992;8.648;2023-12-28T08:25:26;99762.22;;;9.48
82297;BMP280;71899;51.992;8.648;2023-12-28T08:27:52;99758.41;;;9.39
82297;BMP280;71899;51.992;8.648;2023-12-28T08:30:17;99762.56;;;9.29
82297;BMP280;71899;51.992;8.648;2023-12-28T08:32:42;99759.25;;;9.39
82297;BMP280;71899;51.992;8.648;2023-12-28T08:35:08;99774.63;;;9.44
82297;BMP280;71899;51.992;8.648;2023-12-28T08:37:33;99764.97;;;9.59
82297;BMP280;71899;51.992;8.648;2023-12-28T08:39:58;99771.03;;;9.59
82297;BMP280;71899;51.992;8.648;2023-12-28T08:42:23;99788.53;;;9.57
82297;BMP280;71899;51.992;8.648;2023-12-28T08:44:50;99764.75;;;9.62
82297;BMP280;71899;51.992;8.648;2023-12-28T08:47:15;99767.88;;;9.67
82297;BMP280;71899;51.992;8.648;2023-12-28T08:49:40;99751.94;;;9.71
82297;BMP280;71899;51.992;8.648;2023-12-28T08:52:06;99745.00;;;9.58
82297;BMP280;71899;51.992;8.648;2023-12-28T08:54:31;99761.59;;;9.57
82297;BMP280;71899;51.992;8.648;2023-12-28T08:56:57;99757.22;;;9.57
82297;BMP280;71899;51.992;8.648;2023-12-28T08:59:22;99772.88;;;9.57
82297;BMP280;71899;51.992;8.648;2023-12-28T09:01:47;99765.63;;;9.75
82297;BMP280;71899;51.992;8.648;2023-12-28T09:04:13;99783.16;;;9.73
82297;BMP280;71899;51.992;8.648;2023-12-28T09:06:45;99785.72;;;9.60
82297;BMP280;71899;51.992;8.648;2023-12-28T09:09:11;99781.13;;;9.64
82297;BMP280;71899;51.992;8.648;2023-12-28T09:11:37;99788.47;;;9.71
82297;BMP280;71899;51.992;8.648;2023-12-28T09:14:03;99798.53;;;10.03
82297;BMP280;71899;51.992;8.648;2023-12-28T09:16:31;99798.41;;;10.18
82297;BMP280;71899;51.992;8.648;2023-12-28T09:19:00;99794.31;;;10.14
82297;BMP280;71899;51.992;8.648;2023-12-28T09:21:44;99787.03;;;10.19
82297;BMP280;71899;51.992;8.648;2023-12-28T09:24:15;99786.75;;;10.10
82297;BMP280;71899;51.992;8.648;2023-12-28T09:26:47;99783.91;;;9.87
82297;BMP280;71899;51.992;8.648;2023-12-28T09:29:13;99784.78;;;10.01
82297;BMP280;71899;51.992;8.648;2023-12-28T09:31:39;99788.94;;;10.03
82297;BMP280;71899;51.992;8.648;2023-12-28T09:34:05;99796.84;;;10.28
82297;BMP280;71899;51.992;8.648;2023-12-28T09:36:31;99800.41;;;10.40
82297;BMP280;71899;51.992;8.648;2023-12-28T09:39:00;99816.91;;;10.53
82297;BMP280;71899;51.992;8.648;2023-12-28T09:41:36;99804.06;;;10.37
82297;BMP280;71899;51.992;8.648;2023-12-28T09:44:13;99811.16;;;10.48
82297;BMP280;71899;51.992;8.648;2023-12-28T09:46:43;99802.78;;;10.68
82297;BMP280;71899;51.992;8.648;2023-12-28T09:49:10;99803.38;;;10.84
82297;BMP280;71899;51.992;8.648;2023-12-28T09:51:41;99801.72;;;10.71
82297;BMP280;71899;51.992;8.648;2023-12-28T09:54:12;99808.31;;;10.64
82297;BMP280;71899;51.992;8.648;2023-12-28T09:56:57;99789.75;;;10.92
82297;BMP280;71899;51.992;8.648;2023-12-28T09:59:28;99786.44;;;10.90
82297;BMP280;71899;51.992;8.648;2023-12-28T10:02:00;99786.13;;;11.18
82297;BMP280;71899;51.992;8.648;2023-12-28T10:04:28;99779.28;;;11.05
82297;BMP280;71899;51.992;8.648;2023-12-28T10:06:56;99769.13;;;11.00
82297;BMP280;71899;51.992;8.648;2023-12-28T10:09:40;99779.59;;;11.00
82297;BMP280;71899;51.992;8.648;2023-12-28T10:12:25;99773.75;;;10.97
82297;BMP280;71899;51.992;8.648;2023-12-28T10:20:41;99778.53;;;11.03
82297;BMP280;71899;51.992;8.648;2023-12-28T10:23:06;99790.38;;;11.32
82297;BMP280;71899;51.992;8.648;2023-12-28T10:25:32;99776.28;;;10.85
82297;BMP280;71899;51.992;8.648;2023-12-28T10:28:03;99786.59;;;11.00
82297;BMP280;71899;51.992;8.648;2023-12-28T10:30:29;99784.56;;;10.79
82297;BMP280;71899;51.992;8.648;2023-12-28T10:32:55;99778.22;;;11.07
82297;BMP280;71899;51.992;8.648;2023-12-28T10:35:20;99787.13;;;11.05
82297;BMP280;71899;51.992;8.648;2023-12-28T10:37:46;99772.66;;;11.12
82297;BMP280;71899;51.992;8.648;2023-12-28T10:40:20;99775.38;;;11.10
82297;BMP280;71899;51.992;8.648;2023-12-28T10:42:51;99784.69;;;11.38
82297;BMP280;71899;51.992;8.648;2023-12-28T10:45:18;99773.19;;;11.40
82297;BMP280;71899;51.992;8.648;2023-12-28T10:48:11;99783.19;;;11.47
82297;BMP280;71899;51.992;8.648;2023-12-28T10:50:42;99794.94;;;11.41
82297;BMP280;71899;51.992;8.648;2023-12-28T10:59:10;99772.97;;;11.31
82297;BMP280;71899;51.992;8.648;2023-12-28T11:01:40;99777.13;;;11.46
82297;BMP280;71899;51.992;8.648;2023-12-28T11:06:53;99775.13;;;11.26
82297;BMP280;71899;51.992;8.648;2023-12-28T11:09:20;99772.56;;;11.37
82297;BMP280;71899;51.992;8.648;2023-12-28T11:11:47;99772.09;;;11.43
82297;BMP280;71899;51.992;8.648;2023-12-28T11:14:16;99771.56;;;11.51
82297;BMP280;71899;51.992;8.648;2023-12-28T11:16:43;99735.38;;;11.44
82297;BMP280;71899;51.992;8.648;2023-12-28T11:19:09;99778.75;;;11.36
82297;BMP280;71899;51.992;8.648;2023-12-28T11:21:35;99757.88;;;11.23
82297;BMP280;71899;51.992;8.648;2023-12-28T11:24:01;99762.38;;;11.21
82297;BMP280;71899;51.992;8.648;2023-12-28T11:26:27;99770.44;;;11.42
82297;BMP280;71899;51.992;8.648;2023-12-28T11:29:04;99762.53;;;11.31
82297;BMP280;71899;51.992;8.648;2023-12-28T11:31:33;99771.88;;;11.46
82297;BMP280;71899;51.992;8.648;2023-12-28T11:34:04;99774.81;;;11.65
82297;BMP280;71899;51.992;8.648;2023-12-28T11:36:34;99770.09;;;11.47
82297;BMP280;71899;51.992;8.648;2023-12-28T11:39:05;99752.53;;;11.60
82297;BMP280;71899;51.992;8.648;2023-12-28T11:41:32;99770.16;;;11.58
82297;BMP280;71899;51.992;8.648;2023-12-28T11:44:02;99762.84;;;11.74
82297;BMP280;71899;51.992;8.648;2023-12-28T11:46:29;99760.47;;;11.71
82297;BMP280;71899;51.992;8.648;2023-12-28T11:49:06;99767.19;;;11.62
82297;BMP280;71899;51.992;8.648;2023-12-28T11:51:36;99769.53;;;11.78
82297;BMP280;71899;51.992;8.648;2023-12-28T11:54:03;99794.84;;;11.66
82297;BMP280;71899;51.992;8.648;2023-12-28T11:56:29;99753.41;;;11.36
82297;BMP280;71899;51.992;8.648;2023-12-28T11:58:55;99760.13;;;11.75
82297;BMP280;71899;51.992;8.648;2023-12-28T12:01:21;99770.19;;;11.92
82297;BMP280;71899;51.992;8.648;2023-12-28T12:03:48;99739.31;;;11.85
82297;BMP280;71899;51.992;8.648;2023-12-28T12:06:14;99753.75;;;11.67
82297;BMP280;71899;51.992;8.648;2023-12-28T12:08:39;99772.06;;;11.79
82297;BMP280;71899;51.992;8.648;2023-12-28T12:11:05;99787.41;;;11.60
82297;BMP280;71899;51.992;8.648;2023-12-28T12:13:31;99759.19;;;11.53
82297;BMP280;71899;51.992;8.648;2023-12-28T12:15:57;99752.66;;;11.58
82297;BMP280;71899;51.992;8.648;2023-12-28T12:18:23;99752.19;;;11.64
82297;BMP280;71899;51.992;8.648;2023-12-28T12:20:49;99728.97;;;11.83
82297;BMP280;71899;51.992;8.648;2023-12-28T12:23:15;99736.69;;;11.50
82297;BMP280;71899;51.992;8.648;2023-12-28T12:25:40;99742.81;;;11.62
82297;BMP280;71899;51.992;8.648;2023-12-28T12:28:06;99749.66;;;11.75
82297;BMP280;71899;51.992;8.648;2023-12-28T12:30:32;99739.81;;;11.90
82297;BMP280;71899;51.992;8.648;2023-12-28T12:32:57;99738.28;;;11.87
82297;BMP280;71899;51.992;8.648;2023-12-28T12:35:23;99735.50;;;11.54
82297;BMP280;71899;51.992;8.648;2023-12-28T12:37:48;99732.91;;;11.54
82297;BMP280;71899;51.992;8.648;2023-12-28T12:40:17;99726.53;;;11.69
82297;BMP280;71899;51.992;8.648;2023-12-28T12:42:52;99718.63;;;11.58
82297;BMP280;71899;51.992;8.648;2023-12-28T12:45:18;99728.16;;;11.59
82297;BMP280;71899;51.992;8.648;2023-12-28T12:47:44;99728.59;;;11.53
82297;BMP280;71899;51.992;8.648;2023-12-28T12:50:11;99718.72;;;11.57
82297;BMP280;71899;51.992;8.648;2023-12-28T12:52:36;99725.28;;;11.51
82297;BMP280;71899;51.992;8.648;2023-12-28T12:55:02;99714.66;;;11.53
82297;BMP280;71899;51.992;8.648;2023-12-28T12:57:31;99711.72;;;11.57
82297;BMP280;71899;51.992;8.648;2023-12-28T12:59:58;99719.94;;;11.64
82297;BMP280;71899;51.992;8.648;2023-12-28T13:02:24;99709.56;;;11.51
82297;BMP280;71899;51.992;8.648;2023-12-28T13:04:53;99712.97;;;11.40
82297;BMP280;71899;51.992;8.648;2023-12-28T13:07:19;99702.66;;;11.50
82297;BMP280;71899;51.992;8.648;2023-12-28T13:09:45;99694.13;;;11.59
82297;BMP280;71899;51.992;8.648;2023-12-28T13:12:10;99705.13;;;11.40
82297;BMP280;71899;51.992;8.648;2023-12-28T13:14:37;99704.63;;;11.35
82297;BMP280;71899;51.992;8.648;2023-12-28T13:17:03;99706.72;;;11.54
82297;BMP280;71899;51.992;8.648;2023-12-28T13:19:28;99699.94;;;11.52
82297;BMP280;71899;51.992;8.648;2023-12-28T13:21:54;99693.44;;;11.33
82297;BMP280;71899;51.992;8.648;2023-12-28T13:24:19;99688.47;;;11.41
82297;BMP280;71899;51.992;8.648;2023-12-28T13:26:44;99700.44;;;11.68
82297;BMP280;71899;51.992;8.648;2023-12-28T13:29:10;99698.16;;;11.52
82297;BMP280;71899;51.992;8.648;2023-12-28T13:31:35;99682.94;;;11.22
82297;BMP280;71899;51.992;8.648;2023-12-28T13:34:00;99689.44;;;11.40
82297;BMP280;71899;51.992;8.648;2023-12-28T13:36:30;99683.81;;;11.34
82297;BMP280;71899;51.992;8.648;2023-12-28T13:38:56;99681.19;;;11.34
82297;BMP280;71899;51.992;8.648;2023-12-28T13:41:22;99684.53;;;11.36
82297;BMP280;71899;51.992;8.648;2023-12-28T13:43:48;99689.53;;;11.39
82297;BMP280;71899;51.992;8.648;2023-12-28T13:46:13;99680.41;;;11.44
82297;BMP280;71899;51.992;8.648;2023-12-28T13:48:39;99690.22;;;11.30
82297;BMP280;71899;51.992;8.648;2023-12-28T13:51:05;99673.41;;;11.21
82297;BMP280;71899;51.992;8.648;2023-12-28T13:53:31;99695.63;;;11.16
82297;BMP280;71899;51.992;8.648;2023-12-28T13:56:01;99693.16;;;11.25
82297;BMP280;71899;51.992;8.648;2023-12-28T13:58:26;99686.94;;;11.15
82297;BMP280;71899;51.992;8.648;2023-12-28T14:00:51;99676.88;;;11.22
82297;BMP280;71899;51.992;8.648;2023-12-28T14:03:17;99699.09;;;11.27
82297;BMP280;71899;51.992;8.648;2023-12-28T14:05:42;99690.66;;;11.24
82297;BMP280;71899;51.992;8.648;2023-12-28T14:08:08;99692.59;;;11.33
82297;BMP280;71899;51.992;8.648;2023-12-28T14:10:33;99682.44;;;11.52
82297;BMP280;71899;51.992;8.648;2023-12-28T14:12:59;99686.59;;;11.43
82297;BMP280;71899;51.992;8.648;2023-12-28T14:15:24;99688.13;;;11.46
82297;BMP280;71899;51.992;8.648;2023-12-28T14:17:49;99670.78;;;11.21
82297;BMP280;71899;51.992;8.648;2023-12-28T14:20:15;99685.56;;;11.22
82297;BMP280;71899;51.992;8.648;2023-12-28T14:22:41;99667.41;;;11.08
82297;BMP280;71899;51.992;8.648;2023-12-28T14:25:07;99669.19;;;11.08
82297;BMP280;71899;51.992;8.648;2023-12-28T14:27:32;99685.41;;;11.24
82297;BMP280;71899;51.992;8.648;2023-12-28T14:29:58;99674.28;;;11.33
82297;BMP280;71899;51.992;8.648;2023-12-28T14:32:24;99670.09;;;11.19
82297;BMP280;71899;51.992;8.648;2023-12-28T14:34:49;99692.22;;;11.03